sensor_id;sensor_type;location;lat;lon;timestamp;P1;durP1;ratioP1;P2;durP2;ratioP2
59416;SDS011;45222;52.458;20.914;2023-04-25T00:00:46;18.10;;;16.30;;
59416;SDS011;45222;52.458;20.914;2023-04-25T00:04:39;19.70;;;17.60;;
59416;SDS011;45222;52.458;20.914;2023-04-25T00:08:28;21.10;;;18.90;;
59416;SDS011;45222;52.458;20.914;2023-04-25T00:12:16;20.50;;;18.30;;
59416;SDS011;45222;52.458;20.914;2023-04-25T00:16:05;17.30;;;15.30;;
59416;SDS011;45222;52.458;20.914;2023-04-25T00:19:53;18.40;;;15.20;;
59416;SDS011;45222;52.458;20.914;2023-04-25T00:23:47;16.70;;;14.80;;
59416;SDS011;45222;52.458;20.914;2023-04-25T00:27:46;21.30;;;17.70;;
59416;SDS011;45222;52.458;20.914;2023-04-25T00:31:34;19.50;;;17.20;;
59416;SDS011;45222;52.458;20.914;2023-04-25T00:35:22;20.50;;;17.80;;
59416;SDS011;45222;52.458;20.914;2023-04-25T00:39:10;19.40;;;17.40;;
59416;SDS011;45222;52.458;20.914;2023-04-25T00:42:58;18.90;;;16.00;;
59416;SDS011;45222;52.458;20.914;2023-04-25T00:46:46;18.80;;;15.80;;
59416;SDS011;45222;52.458;20.914;2023-04-25T00:50:34;18.70;;;16.60;;
59416;SDS011;45222;52.458;20.914;2023-04-25T00:54:23;20.20;;;17.90;;
59416;SDS011;45222;52.458;20.914;2023-04-25T00:58:11;21.10;;;19.00;;
59416;SDS011;45222;52.458;20.914;2023-04-25T01:01:59;21.50;;;19.30;;
59416;SDS011;45222;52.458;20.914;2023-04-25T01:05:49;19.90;;;17.80;;
59416;SDS011;45222;52.458;20.914;2023-04-25T01:09:37;21.50;;;16.50;;
59416;SDS011;45222;52.458;20.914;2023-04-25T01:13:25;19.40;;;16.50;;
59416;SDS011;45222;52.458;20.914;2023-04-25T01:17:13;19.60;;;17.10;;
59416;SDS011;45222;52.458;20.914;2023-04-25T01:21:04;21.00;;;18.40;;
59416;SDS011;45222;52.458;20.914;2023-04-25T01:24:54;21.00;;;18.70;;
59416;SDS011;45222;52.458;20.914;2023-04-25T01:28:43;19.30;;;17.20;;
59416;SDS011;45222;52.458;20.914;2023-04-25T01:32:31;19.60;;;17.10;;
59416;SDS011;45222;52.458;20.914;2023-04-25T01:36:23;23.30;;;19.00;;
59416;SDS011;45222;52.458;20.914;2023-04-25T01:40:12;24.50;;;21.70;;
59416;SDS011;45222;52.458;20.914;2023-04-25T01:44:00;25.50;;;22.50;;
59416;SDS011;45222;52.458;20.914;2023-04-25T01:47:49;29.70;;;23.40;;
59416;SDS011;45222;52.458;20.914;2023-04-25T01:51:37;27.60;;;22.80;;
59416;SDS011;45222;52.458;20.914;2023-04-25T01:55:25;21.50;;;19.00;;
59416;SDS011;45222;52.458;20.914;2023-04-25T01:59:12;24.10;;;19.30;;
59416;SDS011;45222;52.458;20.914;2023-04-25T02:03:00;25.70;;;20.20;;
59416;SDS011;45222;52.458;20.914;2023-04-25T02:06:48;23.90;;;21.40;;
59416;SDS011;45222;52.458;20.914;2023-04-25T02:10:37;25.00;;;21.50;;
59416;SDS011;45222;52.458;20.914;2023-04-25T02:14:25;22.90;;;20.40;;
59416;SDS011;45222;52.458;20.914;2023-04-25T02:18:13;22.00;;;19.30;;
59416;SDS011;45222;52.458;20.914;2023-04-25T02:22:01;24.70;;;18.30;;
59416;SDS011;45222;52.458;20.914;2023-04-25T02:25:49;22.20;;;19.00;;
59416;SDS011;45222;52.458;20.914;2023-04-25T02:29:38;23.70;;;20.20;;
59416;SDS011;45222;52.458;20.914;2023-04-25T02:33:26;24.20;;;20.60;;
59416;SDS011;45222;52.458;20.914;2023-04-25T02:37:13;22.00;;;19.70;;
59416;SDS011;45222;52.458;20.914;2023-04-25T02:41:01;20.50;;;18.30;;
59416;SDS011;45222;52.458;20.914;2023-04-25T02:44:49;20.90;;;18.70;;
59416;SDS011;45222;52.458;20.914;2023-04-25T02:48:37;22.20;;;19.20;;
59416;SDS011;45222;52.458;20.914;2023-04-25T02:52:25;33.50;;;20.20;;
59416;SDS011;45222;52.458;20.914;2023-04-25T02:56:13;23.50;;;20.60;;
59416;SDS011;45222;52.458;20.914;2023-04-25T03:00:01;23.30;;;19.90;;
59416;SDS011;45222;52.458;20.914;2023-04-25T03:03:50;20.10;;;18.00;;
59416;SDS011;45222;52.458;20.914;2023-04-25T03:07:38;22.20;;;18.30;;
59416;SDS011;45222;52.458;20.914;2023-04-25T03:11:28;27.50;;;20.00;;
59416;SDS011;45222;52.458;20.914;2023-04-25T03:15:16;24.70;;;21.80;;
59416;SDS011;45222;52.458;20.914;2023-04-25T03:19:04;26.20;;;22.70;;
59416;SDS011;45222;52.458;20.914;2023-04-25T03:22:52;23.90;;;21.10;;
59416;SDS011;45222;52.458;20.914;2023-04-25T03:26:40;21.90;;;18.60;;
59416;SDS011;45222;52.458;20.914;2023-04-25T03:30:29;21.10;;;17.30;;
59416;SDS011;45222;52.458;20.914;2023-04-25T03:34:17;20.00;;;14.80;;
59416;SDS011;45222;52.458;20.914;2023-04-25T03:41:52;14.20;;;12.50;;
59416;SDS011;45222;52.458;20.914;2023-04-25T03:45:40;16.80;;;12.10;;
59416;SDS011;45222;52.458;20.914;2023-04-25T03:49:28;14.00;;;12.50;;
59416;SDS011;45222;52.458;20.914;2023-04-25T03:53:15;13.30;;;11.50;;
59416;SDS011;45222;52.458;20.914;2023-04-25T03:57:04;15.30;;;11.40;;
59416;SDS011;45222;52.458;20.914;2023-04-25T04:00:51;12.90;;;10.50;;
59416;SDS011;45222;52.458;20.914;2023-04-25T04:04:39;12.30;;;9.90;;
59416;SDS011;45222;52.458;20.914;2023-04-25T04:08:28;12.40;;;9.70;;
59416;SDS011;45222;52.458;20.914;2023-04-25T04:12:16;12.20;;;9.20;;
59416;SDS011;45222;52.458;20.914;2023-04-25T04:16:05;11.30;;;10.10;;
59416;SDS011;45222;52.458;20.914;2023-04-25T04:19:53;11.40;;;9.50;;
59416;SDS011;45222;52.458;20.914;2023-04-25T04:23:40;11.90;;;8.50;;
59416;SDS011;45222;52.458;20.914;2023-04-25T04:27:28;11.00;;;8.10;;
59416;SDS011;45222;52.458;20.914;2023-04-25T04:31:16;14.70;;;8.60;;
59416;SDS011;45222;52.458;20.914;2023-04-25T04:35:05;10.20;;;8.30;;
59416;SDS011;45222;52.458;20.914;2023-04-25T04:38:55;19.20;;;8.80;;
59416;SDS011;45222;52.458;20.914;2023-04-25T04:42:44;11.00;;;9.50;;
59416;SDS011;45222;52.458;20.914;2023-04-25T04:46:32;11.10;;;8.60;;
59416;SDS011;45222;52.458;20.914;2023-04-25T04:50:22;12.00;;;9.00;;
59416;SDS011;45222;52.458;20.914;2023-04-25T04:54:11;11.70;;;8.90;;
59416;SDS011;45222;52.458;20.914;2023-04-25T04:57:59;12.70;;;9.20;;
59416;SDS011;45222;52.458;20.914;2023-04-25T05:01:47;11.90;;;9.80;;
59416;SDS011;45222;52.458;20.914;2023-04-25T05:05:35;14.20;;;10.40;;
59416;SDS011;45222;52.458;20.914;2023-04-25T05:09:24;13.10;;;10.40;;
59416;SDS011;45222;52.458;20.914;2023-04-25T05:13:12;11.40;;;9.60;;
59416;SDS011;45222;52.458;20.914;2023-04-25T05:17:00;13.60;;;9.90;;
59416;SDS011;45222;52.458;20.914;2023-04-25T05:20:51;12.30;;;9.40;;
59416;SDS011;45222;52.458;20.914;2023-04-25T05:24:39;14.40;;;10.50;;
59416;SDS011;45222;52.458;20.914;2023-04-25T05:28:27;13.50;;;11.60;;
59416;SDS011;45222;52.458;20.914;2023-04-25T05:32:15;13.90;;;10.70;;
59416;SDS011;45222;52.458;20.914;2023-04-25T05:36:04;13.60;;;10.20;;
59416;SDS011;45222;52.458;20.914;2023-04-25T05:39:53;11.20;;;8.70;;
59416;SDS011;45222;52.458;20.914;2023-04-25T05:43:41;11.70;;;9.10;;
59416;SDS011;45222;52.458;20.914;2023-04-25T05:47:31;10.70;;;8.70;;
59416;SDS011;45222;52.458;20.914;2023-04-25T05:51:19;12.20;;;9.50;;
59416;SDS011;45222;52.458;20.914;2023-04-25T05:55:08;11.70;;;10.20;;
59416;SDS011;45222;52.458;20.914;2023-04-25T05:59:01;10.80;;;9.20;;
59416;SDS011;45222;52.458;20.914;2023-04-25T06:03:01;12.70;;;8.40;;
59416;SDS011;45222;52.458;20.914;2023-04-25T06:06:49;10.00;;;7.90;;
59416;SDS011;45222;52.458;20.914;2023-04-25T06:10:37;9.40;;;7.30;;
59416;SDS011;45222;52.458;20.914;2023-04-25T06:14:25;9.30;;;7.50;;
59416;SDS011;45222;52.458;20.914;2023-04-25T06:18:13;9.20;;;7.50;;
59416;SDS011;45222;52.458;20.914;2023-04-25T06:22:01;9.00;;;7.30;;
59416;SDS011;45222;52.458;20.914;2023-04-25T06:25:49;10.20;;;7.20;;
59416;SDS011;45222;52.458;20.914;2023-04-25T06:29:38;8.30;;;6.20;;
59416;SDS011;45222;52.458;20.914;2023-04-25T06:33:26;9.60;;;7.00;;
59416;SDS011;45222;52.458;20.914;2023-04-25T06:37:14;10.00;;;7.20;;
59416;SDS011;45222;52.458;20.914;2023-04-25T06:41:02;10.50;;;7.00;;
59416;SDS011;45222;52.458;20.914;2023-04-25T06:44:50;10.10;;;6.70;;
59416;SDS011;45222;52.458;20.914;2023-04-25T06:48:38;9.50;;;6.70;;
59416;SDS011;45222;52.458;20.914;2023-04-25T06:52:26;9.10;;;7.20;;
59416;SDS011;45222;52.458;20.914;2023-04-25T06:56:13;9.40;;;8.10;;
59416;SDS011;45222;52.458;20.914;2023-04-25T07:00:02;11.30;;;7.40;;
59416;SDS011;45222;52.458;20.914;2023-04-25T07:03:53;9.60;;;7.10;;
59416;SDS011;45222;52.458;20.914;2023-04-25T07:07:41;9.20;;;7.00;;
59416;SDS011;45222;52.458;20.914;2023-04-25T07:11:29;12.80;;;7.20;;
59416;SDS011;45222;52.458;20.914;2023-04-25T07:15:17;13.10;;;9.10;;
59416;SDS011;45222;52.458;20.914;2023-04-25T07:19:05;67.60;;;16.50;;
59416;SDS011;45222;52.458;20.914;2023-04-25T07:22:53;11.00;;;8.50;;
59416;SDS011;45222;52.458;20.914;2023-04-25T07:26:40;8.80;;;7.40;;
59416;SDS011;45222;52.458;20.914;2023-04-25T07:30:28;8.80;;;7.50;;
59416;SDS011;45222;52.458;20.914;2023-04-25T07:34:17;8.90;;;7.40;;
59416;SDS011;45222;52.458;20.914;2023-04-25T07:38:04;10.70;;;8.50;;
59416;SDS011;45222;52.458;20.914;2023-04-25T07:41:52;12.40;;;9.70;;
59416;SDS011;45222;52.458;20.914;2023-04-25T07:45:40;14.30;;;10.40;;
59416;SDS011;45222;52.458;20.914;2023-04-25T07:49:28;13.60;;;8.90;;
59416;SDS011;45222;52.458;20.914;2023-04-25T07:53:17;9.70;;;8.20;;
59416;SDS011;45222;52.458;20.914;2023-04-25T07:57:04;10.90;;;8.40;;
59416;SDS011;45222;52.458;20.914;2023-04-25T08:00:53;9.80;;;8.30;;
59416;SDS011;45222;52.458;20.914;2023-04-25T08:04:41;11.80;;;8.70;;
59416;SDS011;45222;52.458;20.914;2023-04-25T08:08:29;9.00;;;7.50;;
59416;SDS011;45222;52.458;20.914;2023-04-25T08:12:16;9.60;;;7.10;;
59416;SDS011;45222;52.458;20.914;2023-04-25T08:16:04;8.60;;;7.40;;
59416;SDS011;45222;52.458;20.914;2023-04-25T08:19:52;10.70;;;9.20;;
59416;SDS011;45222;52.458;20.914;2023-04-25T08:23:40;9.20;;;8.10;;
59416;SDS011;45222;52.458;20.914;2023-04-25T08:27:27;38.50;;;11.40;;
59416;SDS011;45222;52.458;20.914;2023-04-25T08:31:15;10.00;;;7.10;;
59416;SDS011;45222;52.458;20.914;2023-04-25T08:35:04;9.20;;;6.80;;
59416;SDS011;45222;52.458;20.914;2023-04-25T08:38:53;8.70;;;7.10;;
59416;SDS011;45222;52.458;20.914;2023-04-25T08:42:41;7.60;;;6.10;;
59416;SDS011;45222;52.458;20.914;2023-04-25T08:46:29;7.60;;;6.00;;
59416;SDS011;45222;52.458;20.914;2023-04-25T08:50:18;9.30;;;6.20;;
59416;SDS011;45222;52.458;20.914;2023-04-25T08:54:09;9.00;;;6.40;;
59416;SDS011;45222;52.458;20.914;2023-04-25T08:57:58;10.00;;;8.40;;
59416;SDS011;45222;52.458;20.914;2023-04-25T09:01:47;8.90;;;6.80;;
59416;SDS011;45222;52.458;20.914;2023-04-25T09:05:36;8.40;;;6.30;;
59416;SDS011;45222;52.458;20.914;2023-04-25T09:13:12;8.30;;;6.20;;
59416;SDS011;45222;52.458;20.914;2023-04-25T09:17:02;7.80;;;6.30;;
59416;SDS011;45222;52.458;20.914;2023-04-25T09:20:52;8.10;;;5.50;;
59416;SDS011;45222;52.458;20.914;2023-04-25T09:24:41;7.90;;;5.60;;
59416;SDS011;45222;52.458;20.914;2023-04-25T09:28:30;7.20;;;5.60;;
59416;SDS011;45222;52.458;20.914;2023-04-25T09:32:20;8.70;;;6.10;;
59416;SDS011;45222;52.458;20.914;2023-04-25T09:36:09;8.10;;;5.60;;
59416;SDS011;45222;52.458;20.914;2023-04-25T09:39:58;7.50;;;5.50;;
59416;SDS011;45222;52.458;20.914;2023-04-25T09:43:56;8.00;;;5.80;;
59416;SDS011;45222;52.458;20.914;2023-04-25T09:47:44;8.40;;;6.00;;
59416;SDS011;45222;52.458;20.914;2023-04-25T09:51:32;8.50;;;5.30;;
59416;SDS011;45222;52.458;20.914;2023-04-25T09:55:20;10.20;;;6.10;;
59416;SDS011;45222;52.458;20.914;2023-04-25T09:59:08;11.60;;;7.00;;
59416;SDS011;45222;52.458;20.914;2023-04-25T10:02:57;8.90;;;6.00;;
59416;SDS011;45222;52.458;20.914;2023-04-25T10:06:50;8.20;;;6.10;;
59416;SDS011;45222;52.458;20.914;2023-04-25T10:10:39;9.20;;;5.80;;
59416;SDS011;45222;52.458;20.914;2023-04-25T10:14:28;7.20;;;5.70;;
59416;SDS011;45222;52.458;20.914;2023-04-25T10:18:17;9.50;;;6.50;;
59416;SDS011;45222;52.458;20.914;2023-04-25T10:22:06;8.30;;;6.80;;
59416;SDS011;45222;52.458;20.914;2023-04-25T10:25:59;10.80;;;6.50;;
59416;SDS011;45222;52.458;20.914;2023-04-25T10:29:47;8.90;;;6.40;;
59416;SDS011;45222;52.458;20.914;2023-04-25T10:33:48;8.20;;;6.30;;
59416;SDS011;45222;52.458;20.914;2023-04-25T10:37:37;8.90;;;6.50;;
59416;SDS011;45222;52.458;20.914;2023-04-25T10:41:48;8.50;;;6.60;;
59416;SDS011;45222;52.458;20.914;2023-04-25T10:45:52;8.20;;;6.00;;
59416;SDS011;45222;52.458;20.914;2023-04-25T10:49:42;8.10;;;5.30;;
59416;SDS011;45222;52.458;20.914;2023-04-25T10:53:31;6.80;;;4.90;;
59416;SDS011;45222;52.458;20.914;2023-04-25T11:01:38;8.30;;;5.70;;
59416;SDS011;45222;52.458;20.914;2023-04-25T11:05:29;8.40;;;5.70;;
59416;SDS011;45222;52.458;20.914;2023-04-25T11:09:19;7.20;;;4.90;;
59416;SDS011;45222;52.458;20.914;2023-04-25T11:13:09;7.80;;;5.20;;
59416;SDS011;45222;52.458;20.914;2023-04-25T11:16:57;7.40;;;5.20;;
59416;SDS011;45222;52.458;20.914;2023-04-25T11:20:46;9.20;;;6.20;;
59416;SDS011;45222;52.458;20.914;2023-04-25T11:24:35;8.40;;;5.60;;
59416;SDS011;45222;52.458;20.914;2023-04-25T11:28:23;8.10;;;5.60;;
59416;SDS011;45222;52.458;20.914;2023-04-25T11:32:11;6.90;;;4.90;;
59416;SDS011;45222;52.458;20.914;2023-04-25T11:36:00;6.90;;;4.80;;
59416;SDS011;45222;52.458;20.914;2023-04-25T11:39:50;9.10;;;5.30;;
59416;SDS011;45222;52.458;20.914;2023-04-25T11:43:39;7.50;;;4.80;;
59416;SDS011;45222;52.458;20.914;2023-04-25T11:47:30;7.00;;;4.40;;
59416;SDS011;45222;52.458;20.914;2023-04-25T11:51:18;8.50;;;5.50;;
59416;SDS011;45222;52.458;20.914;2023-04-25T11:55:07;7.00;;;4.60;;
59416;SDS011;45222;52.458;20.914;2023-04-25T11:58:59;6.60;;;4.60;;
59416;SDS011;45222;52.458;20.914;2023-04-25T12:02:51;6.90;;;4.10;;
59416;SDS011;45222;52.458;20.914;2023-04-25T12:06:41;6.30;;;4.10;;
59416;SDS011;45222;52.458;20.914;2023-04-25T12:10:31;6.60;;;4.30;;
59416;SDS011;45222;52.458;20.914;2023-04-25T12:14:23;5.60;;;3.90;;
59416;SDS011;45222;52.458;20.914;2023-04-25T12:18:13;5.50;;;3.80;;
59416;SDS011;45222;52.458;20.914;2023-04-25T12:22:10;6.80;;;3.80;;
59416;SDS011;45222;52.458;20.914;2023-04-25T12:26:06;6.30;;;3.90;;
59416;SDS011;45222;52.458;20.914;2023-04-25T12:29:55;5.80;;;3.80;;
59416;SDS011;45222;52.458;20.914;2023-04-25T12:33:43;7.60;;;3.80;;
59416;SDS011;45222;52.458;20.914;2023-04-25T12:37:32;6.00;;;3.60;;
59416;SDS011;45222;52.458;20.914;2023-04-25T12:41:20;7.90;;;4.20;;
59416;SDS011;45222;52.458;20.914;2023-04-25T12:45:08;6.80;;;3.80;;
59416;SDS011;45222;52.458;20.914;2023-04-25T12:48:56;11.40;;;4.10;;
59416;SDS011;45222;52.458;20.914;2023-04-25T12:52:44;6.70;;;4.20;;
59416;SDS011;45222;52.458;20.914;2023-04-25T12:56:32;7.10;;;4.00;;
59416;SDS011;45222;52.458;20.914;2023-04-25T13:00:21;6.60;;;3.80;;
59416;SDS011;45222;52.458;20.914;2023-04-25T13:04:11;6.70;;;3.90;;
59416;SDS011;45222;52.458;20.914;2023-04-25T13:07:59;5.90;;;3.80;;
59416;SDS011;45222;52.458;20.914;2023-04-25T13:11:47;7.10;;;4.00;;
59416;SDS011;45222;52.458;20.914;2023-04-25T13:15:36;7.20;;;4.20;;
59416;SDS011;45222;52.458;20.914;2023-04-25T13:19:25;8.90;;;4.00;;
59416;SDS011;45222;52.458;20.914;2023-04-25T13:23:14;6.60;;;3.90;;
59416;SDS011;45222;52.458;20.914;2023-04-25T13:30:50;6.30;;;4.30;;
59416;SDS011;45222;52.458;20.914;2023-04-25T13:34:37;7.00;;;4.70;;
59416;SDS011;45222;52.458;20.914;2023-04-25T13:38:25;7.50;;;4.60;;
59416;SDS011;45222;52.458;20.914;2023-04-25T13:42:14;7.10;;;4.30;;
59416;SDS011;45222;52.458;20.914;2023-04-25T13:46:02;7.40;;;4.70;;
59416;SDS011;45222;52.458;20.914;2023-04-25T13:49:51;8.10;;;5.00;;
59416;SDS011;45222;52.458;20.914;2023-04-25T13:53:39;8.10;;;5.30;;
59416;SDS011;45222;52.458;20.914;2023-04-25T13:57:27;6.70;;;4.20;;
59416;SDS011;45222;52.458;20.914;2023-04-25T14:01:16;7.80;;;4.50;;
59416;SDS011;45222;52.458;20.914;2023-04-25T14:05:06;6.40;;;4.30;;
59416;SDS011;45222;52.458;20.914;2023-04-25T14:08:56;7.00;;;4.70;;
59416;SDS011;45222;52.458;20.914;2023-04-25T14:12:45;7.40;;;4.50;;
59416;SDS011;45222;52.458;20.914;2023-04-25T14:16:33;9.20;;;7.00;;
59416;SDS011;45222;52.458;20.914;2023-04-25T14:20:21;11.40;;;5.30;;
59416;SDS011;45222;52.458;20.914;2023-04-25T14:24:09;7.50;;;5.40;;
59416;SDS011;45222;52.458;20.914;2023-04-25T14:27:57;7.80;;;5.00;;
59416;SDS011;45222;52.458;20.914;2023-04-25T14:31:45;7.30;;;5.20;;
59416;SDS011;45222;52.458;20.914;2023-04-25T14:35:33;6.70;;;4.90;;
59416;SDS011;45222;52.458;20.914;2023-04-25T14:39:22;7.50;;;5.20;;
59416;SDS011;45222;52.458;20.914;2023-04-25T14:43:11;7.50;;;4.90;;
59416;SDS011;45222;52.458;20.914;2023-04-25T14:46:59;8.60;;;4.90;;
59416;SDS011;45222;52.458;20.914;2023-04-25T14:50:47;7.30;;;5.10;;
59416;SDS011;45222;52.458;20.914;2023-04-25T14:54:34;8.50;;;5.50;;
59416;SDS011;45222;52.458;20.914;2023-04-25T14:58:22;8.10;;;5.80;;
59416;SDS011;45222;52.458;20.914;2023-04-25T15:02:11;8.20;;;5.20;;
59416;SDS011;45222;52.458;20.914;2023-04-25T15:09:48;24.90;;;19.30;;
59416;SDS011;45222;52.458;20.914;2023-04-25T15:13:38;10.50;;;8.10;;
59416;SDS011;45222;52.458;20.914;2023-04-25T15:17:26;12.50;;;9.60;;
59416;SDS011;45222;52.458;20.914;2023-04-25T15:21:17;13.30;;;10.90;;
59416;SDS011;45222;52.458;20.914;2023-04-25T15:25:07;13.30;;;10.00;;
59416;SDS011;45222;52.458;20.914;2023-04-25T15:28:55;12.20;;;8.30;;
59416;SDS011;45222;52.458;20.914;2023-04-25T15:32:44;14.50;;;9.70;;
59416;SDS011;45222;52.458;20.914;2023-04-25T15:36:32;13.70;;;11.30;;
59416;SDS011;45222;52.458;20.914;2023-04-25T15:40:20;12.30;;;9.10;;
59416;SDS011;45222;52.458;20.914;2023-04-25T15:44:08;19.40;;;13.40;;
59416;SDS011;45222;52.458;20.914;2023-04-25T15:47:56;17.50;;;13.00;;
59416;SDS011;45222;52.458;20.914;2023-04-25T15:51:45;20.50;;;16.60;;
59416;SDS011;45222;52.458;20.914;2023-04-25T15:55:36;10.10;;;7.30;;
59416;SDS011;45222;52.458;20.914;2023-04-25T15:59:24;15.80;;;10.30;;
59416;SDS011;45222;52.458;20.914;2023-04-25T16:03:12;20.70;;;13.80;;
59416;SDS011;45222;52.458;20.914;2023-04-25T16:07:00;36.40;;;21.40;;
59416;SDS011;45222;52.458;20.914;2023-04-25T16:14:35;22.30;;;11.40;;
59416;SDS011;45222;52.458;20.914;2023-04-25T16:18:23;15.60;;;8.60;;
59416;SDS011;45222;52.458;20.914;2023-04-25T16:22:11;15.70;;;8.70;;
59416;SDS011;45222;52.458;20.914;2023-04-25T16:26:00;13.30;;;9.20;;
59416;SDS011;45222;52.458;20.914;2023-04-25T16:29:48;17.80;;;11.70;;
59416;SDS011;45222;52.458;20.914;2023-04-25T16:33:36;34.70;;;20.70;;
59416;SDS011;45222;52.458;20.914;2023-04-25T16:37:24;29.90;;;21.50;;
59416;SDS011;45222;52.458;20.914;2023-04-25T16:41:12;19.30;;;14.80;;
59416;SDS011;45222;52.458;20.914;2023-04-25T16:45:00;15.30;;;11.20;;
59416;SDS011;45222;52.458;20.914;2023-04-25T16:48:49;12.10;;;8.60;;
59416;SDS011;45222;52.458;20.914;2023-04-25T16:52:38;10.80;;;8.30;;
59416;SDS011;45222;52.458;20.914;2023-04-25T16:56:26;9.90;;;6.70;;
59416;SDS011;45222;52.458;20.914;2023-04-25T17:00:15;10.10;;;5.90;;
59416;SDS011;45222;52.458;20.914;2023-04-25T17:04:04;10.40;;;6.90;;
59416;SDS011;45222;52.458;20.914;2023-04-25T17:07:52;11.50;;;8.40;;
59416;SDS011;45222;52.458;20.914;2023-04-25T17:11:41;10.60;;;8.10;;
59416;SDS011;45222;52.458;20.914;2023-04-25T17:15:30;11.70;;;8.90;;
59416;SDS011;45222;52.458;20.914;2023-04-25T17:19:18;13.20;;;10.40;;
59416;SDS011;45222;52.458;20.914;2023-04-25T17:23:07;13.90;;;10.60;;
59416;SDS011;45222;52.458;20.914;2023-04-25T17:26:57;14.10;;;10.70;;
59416;SDS011;45222;52.458;20.914;2023-04-25T17:30:46;15.30;;;11.10;;
59416;SDS011;45222;52.458;20.914;2023-04-25T17:34:34;22.00;;;16.90;;
59416;SDS011;45222;52.458;20.914;2023-04-25T17:38:24;21.50;;;15.60;;
59416;SDS011;45222;52.458;20.914;2023-04-25T17:42:12;15.30;;;10.60;;
59416;SDS011;45222;52.458;20.914;2023-04-25T17:46:00;15.10;;;10.40;;
59416;SDS011;45222;52.458;20.914;2023-04-25T17:49:48;15.80;;;11.40;;
59416;SDS011;45222;52.458;20.914;2023-04-25T17:53:36;31.70;;;24.80;;
59416;SDS011;45222;52.458;20.914;2023-04-25T17:57:25;23.70;;;16.50;;
59416;SDS011;45222;52.458;20.914;2023-04-25T18:01:14;17.40;;;12.90;;
59416;SDS011;45222;52.458;20.914;2023-04-25T18:05:02;19.90;;;12.60;;
59416;SDS011;45222;52.458;20.914;2023-04-25T18:08:57;17.10;;;12.50;;
59416;SDS011;45222;52.458;20.914;2023-04-25T18:12:46;18.10;;;12.50;;
59416;SDS011;45222;52.458;20.914;2023-04-25T18:16:34;16.70;;;11.30;;
59416;SDS011;45222;52.458;20.914;2023-04-25T18:20:23;20.80;;;12.60;;
59416;SDS011;45222;52.458;20.914;2023-04-25T18:24:13;19.90;;;13.30;;
59416;SDS011;45222;52.458;20.914;2023-04-25T18:28:02;31.60;;;21.90;;
59416;SDS011;45222;52.458;20.914;2023-04-25T18:31:50;32.10;;;19.10;;
59416;SDS011;45222;52.458;20.914;2023-04-25T18:35:38;32.90;;;17.60;;
59416;SDS011;45222;52.458;20.914;2023-04-25T18:39:26;30.90;;;18.10;;
59416;SDS011;45222;52.458;20.914;2023-04-25T18:43:14;25.20;;;15.10;;
59416;SDS011;45222;52.458;20.914;2023-04-25T18:47:02;15.40;;;10.90;;
59416;SDS011;45222;52.458;20.914;2023-04-25T18:50:50;15.40;;;9.50;;
59416;SDS011;45222;52.458;20.914;2023-04-25T18:54:38;15.40;;;10.20;;
59416;SDS011;45222;52.458;20.914;2023-04-25T18:58:26;14.60;;;9.10;;
59416;SDS011;45222;52.458;20.914;2023-04-25T19:02:13;17.60;;;10.50;;
59416;SDS011;45222;52.458;20.914;2023-04-25T19:06:02;14.50;;;10.00;;
59416;SDS011;45222;52.458;20.914;2023-04-25T19:09:50;13.80;;;11.20;;
59416;SDS011;45222;52.458;20.914;2023-04-25T19:13:38;24.70;;;14.90;;
59416;SDS011;45222;52.458;20.914;2023-04-25T19:17:26;25.50;;;17.10;;
59416;SDS011;45222;52.458;20.914;2023-04-25T19:21:14;24.40;;;16.10;;
59416;SDS011;45222;52.458;20.914;2023-04-25T19:25:02;19.70;;;13.20;;
59416;SDS011;45222;52.458;20.914;2023-04-25T19:29:02;18.40;;;13.00;;
59416;SDS011;45222;52.458;20.914;2023-04-25T19:32:51;16.10;;;12.80;;
59416;SDS011;45222;52.458;20.914;2023-04-25T19:36:40;15.20;;;12.30;;
59416;SDS011;45222;52.458;20.914;2023-04-25T19:40:28;15.40;;;11.20;;
59416;SDS011;45222;52.458;20.914;2023-04-25T19:44:16;23.90;;;17.00;;
59416;SDS011;45222;52.458;20.914;2023-04-25T19:48:05;17.10;;;13.40;;
59416;SDS011;45222;52.458;20.914;2023-04-25T19:51:53;22.70;;;16.20;;
59416;SDS011;45222;52.458;20.914;2023-04-25T19:55:41;16.60;;;14.10;;
59416;SDS011;45222;52.458;20.914;2023-04-25T19:59:29;16.10;;;13.30;;
59416;SDS011;45222;52.458;20.914;2023-04-25T20:03:17;15.10;;;12.30;;
59416;SDS011;45222;52.458;20.914;2023-04-25T20:07:05;13.50;;;11.00;;
59416;SDS011;45222;52.458;20.914;2023-04-25T20:10:52;12.00;;;9.40;;
59416;SDS011;45222;52.458;20.914;2023-04-25T20:14:40;14.70;;;12.70;;
59416;SDS011;45222;52.458;20.914;2023-04-25T20:18:29;15.30;;;11.20;;
59416;SDS011;45222;52.458;20.914;2023-04-25T20:22:16;13.30;;;9.10;;
59416;SDS011;45222;52.458;20.914;2023-04-25T20:26:04;12.70;;;9.40;;
59416;SDS011;45222;52.458;20.914;2023-04-25T20:29:52;13.60;;;10.60;;
59416;SDS011;45222;52.458;20.914;2023-04-25T20:33:40;13.30;;;10.20;;
59416;SDS011;45222;52.458;20.914;2023-04-25T20:37:28;13.90;;;10.50;;
59416;SDS011;45222;52.458;20.914;2023-04-25T20:41:17;13.50;;;10.90;;
59416;SDS011;45222;52.458;20.914;2023-04-25T20:45:06;15.70;;;11.00;;
59416;SDS011;45222;52.458;20.914;2023-04-25T20:48:57;19.60;;;13.50;;
59416;SDS011;45222;52.458;20.914;2023-04-25T20:52:47;22.80;;;15.40;;
59416;SDS011;45222;52.458;20.914;2023-04-25T20:56:34;22.90;;;16.40;;
59416;SDS011;45222;52.458;20.914;2023-04-25T21:00:23;17.50;;;13.00;;
59416;SDS011;45222;52.458;20.914;2023-04-25T21:04:14;16.90;;;12.50;;
59416;SDS011;45222;52.458;20.914;2023-04-25T21:08:01;19.90;;;13.90;;
59416;SDS011;45222;52.458;20.914;2023-04-25T21:11:49;16.80;;;12.40;;
59416;SDS011;45222;52.458;20.914;2023-04-25T21:15:37;17.30;;;13.90;;
59416;SDS011;45222;52.458;20.914;2023-04-25T21:19:25;19.20;;;15.10;;
59416;SDS011;45222;52.458;20.914;2023-04-25T21:23:13;18.70;;;16.20;;
59416;SDS011;45222;52.458;20.914;2023-04-25T21:27:02;21.90;;;16.20;;
59416;SDS011;45222;52.458;20.914;2023-04-25T21:30:50;19.70;;;14.90;;
59416;SDS011;45222;52.458;20.914;2023-04-25T21:34:38;27.40;;;21.50;;
59416;SDS011;45222;52.458;20.914;2023-04-25T21:38:26;23.80;;;18.10;;
59416;SDS011;45222;52.458;20.914;2023-04-25T21:42:15;19.80;;;15.60;;
59416;SDS011;45222;52.458;20.914;2023-04-25T21:46:03;20.80;;;14.80;;
59416;SDS011;45222;52.458;20.914;2023-04-25T21:49:52;22.40;;;18.20;;
59416;SDS011;45222;52.458;20.914;2023-04-25T21:53:39;22.30;;;17.20;;
59416;SDS011;45222;52.458;20.914;2023-04-25T21:57:28;17.70;;;15.10;;
59416;SDS011;45222;52.458;20.914;2023-04-25T22:01:16;16.30;;;14.20;;
59416;SDS011;45222;52.458;20.914;2023-04-25T22:05:04;13.80;;;11.20;;
59416;SDS011;45222;52.458;20.914;2023-04-25T22:08:52;11.80;;;9.30;;
59416;SDS011;45222;52.458;20.914;2023-04-25T22:12:40;11.80;;;8.70;;
59416;SDS011;45222;52.458;20.914;2023-04-25T22:16:29;11.00;;;7.50;;
59416;SDS011;45222;52.458;20.914;2023-04-25T22:20:17;9.00;;;5.70;;
59416;SDS011;45222;52.458;20.914;2023-04-25T22:24:09;8.90;;;4.90;;
59416;SDS011;45222;52.458;20.914;2023-04-25T22:27:57;10.30;;;5.10;;
59416;SDS011;45222;52.458;20.914;2023-04-25T22:31:45;9.20;;;4.70;;
59416;SDS011;45222;52.458;20.914;2023-04-25T22:35:33;8.80;;;4.90;;
59416;SDS011;45222;52.458;20.914;2023-04-25T22:39:21;9.50;;;4.10;;